createdAt,value
2022-08-04T00:04:08.957Z,20.91
2022-08-04T00:09:12.640Z,20.86
2022-08-04T00:14:16.276Z,20.79
2022-08-04T00:19:20.741Z,20.74
2022-08-04T00:24:23.987Z,20.70
2022-08-04T00:29:27.639Z,20.63
2022-08-04T00:34:30.859Z,20.50
2022-08-04T00:39:34.955Z,20.38
2022-08-04T00:44:39.403Z,20.27
2022-08-04T00:49:42.986Z,20.17
2022-08-04T00:54:47.399Z,20.15
2022-08-04T00:59:51.107Z,20.03
2022-08-04T01:04:54.795Z,20.01
2022-08-04T01:09:58.274Z,19.98
2022-08-04T01:15:03.802Z,19.87
2022-08-04T01:20:08.261Z,19.85
2022-08-04T01:25:12.747Z,19.87
2022-08-04T01:30:19.078Z,19.90
2022-08-04T01:35:47.794Z,19.95
2022-08-04T01:41:08.025Z,19.88
2022-08-04T01:46:16.666Z,20.01
2022-08-04T01:51:20.866Z,19.90
2022-08-04T01:56:25.000Z,19.76
2022-08-04T02:01:28.802Z,19.66
2022-08-04T02:06:36.239Z,19.44
2022-08-04T02:11:39.830Z,19.39
2022-08-04T02:16:43.880Z,19.29
2022-08-04T02:21:47.931Z,19.25
2022-08-04T02:26:51.957Z,19.22
2022-08-04T02:31:55.239Z,19.11
2022-08-04T02:36:59.384Z,19.11
2022-08-04T02:42:02.957Z,19.04
2022-08-04T02:47:07.000Z,18.93
2022-08-04T02:52:10.905Z,18.85
2022-08-04T02:57:14.604Z,18.86
2022-08-04T03:02:18.889Z,18.80
2022-08-04T03:07:23.155Z,18.80
2022-08-04T03:12:27.598Z,18.83
2022-08-04T03:17:31.391Z,18.81
2022-08-04T03:22:35.073Z,18.73
2022-08-04T03:27:38.770Z,18.80
2022-08-04T03:32:42.370Z,18.72
2022-08-04T03:37:45.981Z,18.74
2022-08-04T03:42:49.953Z,18.73
2022-08-04T03:47:53.168Z,18.65
2022-08-04T03:53:11.615Z,18.64
2022-08-04T03:58:15.792Z,18.60
2022-08-04T04:03:28.746Z,18.64
2022-08-04T04:08:32.475Z,18.78
2022-08-04T04:13:35.772Z,18.95
2022-08-04T04:18:39.697Z,19.22
2022-08-04T04:23:42.990Z,19.50
2022-08-04T04:28:48.474Z,19.81
2022-08-04T04:33:52.472Z,20.11
2022-08-04T04:38:57.600Z,20.34
2022-08-04T04:44:01.314Z,20.52
2022-08-04T04:49:04.592Z,20.88
2022-08-04T04:54:08.722Z,21.18
2022-08-04T04:59:11.894Z,21.34
2022-08-04T05:04:15.669Z,21.63
2022-08-04T05:09:19.221Z,22.20
2022-08-04T05:14:34.916Z,22.45
2022-08-04T05:19:43.656Z,22.80
2022-08-04T05:24:48.619Z,23.11
2022-08-04T05:29:51.886Z,23.15
2022-08-04T05:34:56.178Z,23.58
2022-08-04T05:39:59.404Z,23.78
2022-08-04T05:45:02.607Z,24.11
2022-08-04T05:50:06.885Z,24.30
2022-08-04T05:55:13.688Z,24.81
2022-08-04T06:00:41.145Z,24.89
2022-08-04T06:05:44.884Z,24.98
2022-08-04T06:10:48.509Z,25.18
2022-08-04T06:15:51.722Z,25.08
2022-08-04T06:20:55.428Z,25.14
2022-08-04T06:25:59.070Z,25.83
2022-08-04T06:32:28.261Z,25.96
2022-08-04T06:36:30.508Z,26.01
2022-08-04T06:41:34.228Z,26.06
2022-08-04T06:46:37.623Z,26.06
2022-08-04T06:51:49.049Z,26.49
2022-08-04T06:56:52.688Z,26.67
2022-08-04T07:01:56.072Z,26.94
2022-08-04T07:06:59.746Z,27.05
2022-08-04T07:12:03.743Z,27.26
2022-08-04T07:17:08.307Z,27.39
2022-08-04T07:22:17.779Z,27.77
2022-08-04T07:27:48.506Z,28.05
2022-08-04T07:32:52.977Z,27.64
2022-08-04T07:37:57.466Z,27.90
2022-08-04T07:43:03.202Z,27.99
2022-08-04T07:48:07.305Z,28.52
2022-08-04T07:53:54.237Z,29.01
2022-08-04T07:58:35.137Z,29.37
2022-08-04T08:03:38.436Z,29.31
2022-08-04T08:08:41.700Z,29.04
2022-08-04T08:13:45.497Z,29.36
2022-08-04T08:18:50.182Z,29.44
2022-08-04T08:23:53.709Z,28.95
2022-08-04T08:28:57.219Z,29.47
2022-08-04T08:34:01.381Z,29.82
2022-08-04T08:39:04.695Z,29.57
2022-08-04T08:44:08.058Z,29.85
2022-08-04T08:49:12.582Z,29.99
2022-08-04T08:54:36.426Z,30.21
2022-08-04T08:59:39.974Z,29.89
2022-08-04T09:04:43.622Z,30.35
2022-08-04T09:09:49.614Z,30.53
2022-08-04T09:14:53.302Z,30.83
2022-08-04T09:19:56.630Z,30.93
2022-08-04T09:25:00.423Z,30.93
2022-08-04T09:30:04.618Z,30.77
2022-08-04T09:35:14.930Z,30.61
2022-08-04T09:40:29.048Z,30.45
2022-08-04T09:45:43.185Z,30.62
2022-08-04T09:50:50.464Z,31.04
2022-08-04T09:55:57.890Z,31.25
2022-08-04T10:01:04.057Z,31.35
2022-08-04T10:06:07.274Z,31.43
2022-08-04T10:11:10.489Z,30.94
2022-08-04T10:16:14.577Z,31.24
2022-08-04T10:21:17.803Z,31.36
2022-08-04T10:26:21.036Z,31.59
2022-08-04T10:31:24.803Z,31.88
2022-08-04T10:36:28.335Z,31.85
2022-08-04T10:41:32.311Z,31.55
2022-08-04T10:46:35.799Z,31.84
2022-08-04T10:51:58.715Z,31.61
2022-08-04T10:57:03.229Z,32.42
2022-08-04T11:02:06.542Z,32.94
2022-08-04T11:07:10.468Z,32.26
2022-08-04T11:12:13.975Z,32.85
2022-08-04T11:17:17.850Z,33.62
2022-08-04T11:22:21.726Z,34.14
2022-08-04T11:27:25.717Z,33.91
2022-08-04T11:32:29.436Z,34.13
2022-08-04T11:37:33.056Z,33.80
2022-08-04T11:42:37.146Z,33.40
2022-08-04T11:47:41.127Z,32.96
2022-08-04T11:52:45.618Z,32.36
2022-08-04T11:57:54.405Z,31.93
2022-08-04T12:02:58.581Z,31.93
2022-08-04T12:08:03.431Z,32.53
2022-08-04T12:13:07.029Z,32.72
2022-08-04T12:18:10.582Z,32.56
2022-08-04T12:23:14.936Z,32.76
2022-08-04T12:28:18.396Z,32.91
2022-08-04T12:33:21.802Z,32.96
2022-08-04T12:38:25.412Z,33.16
2022-08-04T12:43:28.796Z,33.35
2022-08-04T12:48:32.301Z,33.54
2022-08-04T12:53:51.052Z,33.47
2022-08-04T12:58:55.534Z,33.73
2022-08-04T13:03:59.039Z,33.84
2022-08-04T13:09:02.473Z,33.88
2022-08-04T13:14:26.080Z,33.91
2022-08-04T13:19:29.800Z,33.85
2022-08-04T13:24:34.816Z,33.81
2022-08-04T13:29:58.779Z,33.80
2022-08-04T13:35:06.099Z,33.78
2022-08-04T13:40:09.452Z,33.88
2022-08-04T13:45:12.853Z,33.85
2022-08-04T13:50:16.135Z,33.89
2022-08-04T13:55:19.674Z,33.48
2022-08-04T14:00:29.825Z,33.41
2022-08-04T14:05:59.606Z,33.37
2022-08-04T14:10:57.783Z,33.83
2022-08-04T14:16:04.035Z,33.55
2022-08-04T14:21:07.884Z,33.67
2022-08-04T14:26:11.123Z,33.67
2022-08-04T14:31:14.377Z,33.75
2022-08-04T14:36:18.105Z,34.18
2022-08-04T14:41:26.145Z,33.96
2022-08-04T14:46:36.542Z,34.23
2022-08-04T14:51:40.526Z,33.76
2022-08-04T14:56:47.151Z,33.76
2022-08-04T15:02:00.223Z,33.88
2022-08-04T15:07:04.982Z,34.02
2022-08-04T15:12:08.726Z,34.38
2022-08-04T15:17:29.202Z,34.21
2022-08-04T15:22:34.238Z,34.12
2022-08-04T15:27:37.533Z,34.12
2022-08-04T15:32:41.058Z,34.15
2022-08-04T15:37:44.578Z,34.06
2022-08-04T15:42:47.962Z,33.92
2022-08-04T15:47:53.516Z,33.94
2022-08-04T15:53:01.455Z,33.99
2022-08-04T15:58:14.370Z,33.86
2022-08-04T16:03:19.400Z,33.33
2022-08-04T16:08:42.863Z,33.22
2022-08-04T16:14:02.229Z,33.21
2022-08-04T16:19:06.346Z,33.14
2022-08-04T16:24:10.049Z,32.91
2022-08-04T16:29:13.714Z,32.80
2022-08-04T16:34:46.444Z,32.73
2022-08-04T16:39:50.005Z,32.65
2022-08-04T16:44:55.078Z,32.27
2022-08-04T16:49:58.762Z,32.24
2022-08-04T16:55:01.948Z,32.21
2022-08-04T17:00:05.163Z,32.02
2022-08-04T17:05:14.926Z,31.89
2022-08-04T17:10:38.186Z,31.76
2022-08-04T17:15:41.404Z,31.68
2022-08-04T17:20:59.052Z,31.59
2022-08-04T17:26:05.832Z,31.46
2022-08-04T17:31:11.683Z,31.42
2022-08-04T17:36:16.138Z,31.43
2022-08-04T17:41:30.067Z,31.31
2022-08-04T17:46:34.070Z,31.34
2022-08-04T17:52:06.672Z,31.10
2022-08-04T17:57:01.316Z,31.01
2022-08-04T18:12:53.386Z,30.65
2022-08-04T18:18:19.792Z,30.47
2022-08-04T18:23:32.094Z,30.22
2022-08-04T18:28:36.827Z,30.04
2022-08-04T18:33:42.268Z,29.84
2022-08-04T18:38:45.615Z,29.56
2022-08-04T18:43:59.254Z,29.24
2022-08-04T18:49:03.076Z,29.00
2022-08-04T18:54:07.943Z,28.82
2022-08-04T18:59:13.678Z,28.65
2022-08-04T19:04:33.031Z,28.34
2022-08-04T19:09:52.005Z,28.17
2022-08-04T19:14:58.006Z,28.12
2022-08-04T19:20:03.471Z,27.87
2022-08-04T19:25:07.200Z,27.81
2022-08-04T19:30:12.453Z,27.62
2022-08-04T19:35:20.913Z,27.53
2022-08-04T19:40:33.571Z,27.46
2022-08-04T19:45:44.725Z,27.28
2022-08-04T19:50:49.145Z,27.24
2022-08-04T19:55:53.883Z,27.17
2022-08-04T20:00:57.194Z,26.98
2022-08-04T20:06:00.781Z,26.91
2022-08-04T20:11:04.391Z,26.72
2022-08-04T20:16:20.254Z,26.64
2022-08-04T20:21:53.414Z,26.44
2022-08-04T20:26:55.636Z,26.23
2022-08-04T20:32:05.553Z,26.07
2022-08-04T20:37:12.272Z,26.00
2022-08-04T20:42:19.234Z,25.92
2022-08-04T20:47:35.582Z,25.78
2022-08-04T20:52:40.303Z,25.80
2022-08-04T20:57:48.858Z,25.67
2022-08-04T21:02:53.401Z,25.58
2022-08-04T21:07:57.442Z,25.48
2022-08-04T21:13:01.434Z,25.35
2022-08-04T21:18:07.115Z,25.34
2022-08-04T21:23:14.886Z,25.31
2022-08-04T21:28:27.820Z,25.17
2022-08-04T21:33:50.621Z,25.08
2022-08-04T21:38:55.290Z,24.93
2022-08-04T21:43:59.570Z,24.97
2022-08-04T21:49:03.213Z,24.93
2022-08-04T21:54:16.996Z,24.94
2022-08-04T21:59:23.520Z,24.71
2022-08-04T22:04:34.463Z,24.65
2022-08-04T22:09:45.581Z,24.63
2022-08-04T22:16:04.032Z,24.60
2022-08-04T22:20:29.000Z,24.52
2022-08-04T22:25:32.765Z,24.40
2022-08-04T22:30:48.294Z,24.34
2022-08-04T22:35:55.658Z,24.24
2022-08-04T22:41:01.748Z,24.10
2022-08-04T22:46:06.334Z,23.86
2022-08-04T22:51:10.173Z,23.72
2022-08-04T22:56:16.799Z,23.61
2022-08-04T23:01:59.199Z,23.43
2022-08-04T23:07:09.090Z,23.36
2022-08-04T23:12:28.130Z,23.23
2022-08-04T23:17:43.906Z,23.25
2022-08-04T23:22:55.681Z,23.09
2022-08-04T23:28:00.353Z,23.14
2022-08-04T23:33:07.924Z,23.08
2022-08-04T23:38:31.071Z,23.11
2022-08-04T23:43:38.731Z,23.01
2022-08-04T23:48:54.011Z,22.98
2022-08-04T23:54:03.185Z,22.90
2022-08-04T23:59:17.991Z,22.84
